sensor_id;sensor_type;location;lat;lon;timestamp;temperature;humidity
4677;DHT22;2352;48.180;11.478;2024-03-17T00:04:23;10.30;72.90
4677;DHT22;2352;48.180;11.478;2024-03-17T00:09:25;10.40;73.30
4677;DHT22;2352;48.180;11.478;2024-03-17T00:14:28;10.40;72.80
4677;DHT22;2352;48.180;11.478;2024-03-17T00:19:31;10.20;73.40
4677;DHT22;2352;48.180;11.478;2024-03-17T00:24:33;9.90;73.80
4677;DHT22;2352;48.180;11.478;2024-03-17T00:29:37;10.10;73.40
4677;DHT22;2352;48.180;11.478;2024-03-17T00:34:39;9.90;74.00
4677;DHT22;2352;48.180;11.478;2024-03-17T00:39:41;9.90;73.80
4677;DHT22;2352;48.180;11.478;2024-03-17T00:44:45;10.10;73.20
4677;DHT22;2352;48.180;11.478;2024-03-17T00:49:47;10.10;73.40
4677;DHT22;2352;48.180;11.478;2024-03-17T00:54:50;9.90;73.90
4677;DHT22;2352;48.180;11.478;2024-03-17T00:59:54;10.00;73.60
4677;DHT22;2352;48.180;11.478;2024-03-17T01:04:57;10.10;73.60
4677;DHT22;2352;48.180;11.478;2024-03-17T01:09:59;10.00;73.80
4677;DHT22;2352;48.180;11.478;2024-03-17T01:15:04;10.10;73.50
4677;DHT22;2352;48.180;11.478;2024-03-17T01:20:08;10.10;73.70
4677;DHT22;2352;48.180;11.478;2024-03-17T01:25:10;10.20;73.40
4677;DHT22;2352;48.180;11.478;2024-03-17T01:30:14;10.00;73.80
4677;DHT22;2352;48.180;11.478;2024-03-17T01:35:16;10.00;73.80
4677;DHT22;2352;48.180;11.478;2024-03-17T01:40:18;9.90;73.60
4677;DHT22;2352;48.180;11.478;2024-03-17T01:45:27;9.90;73.30
4677;DHT22;2352;48.180;11.478;2024-03-17T01:50:31;9.90;72.90
4677;DHT22;2352;48.180;11.478;2024-03-17T01:55:36;9.90;72.40
4677;DHT22;2352;48.180;11.478;2024-03-17T02:00:40;9.80;72.90
4677;DHT22;2352;48.180;11.478;2024-03-17T02:05:42;9.70;73.30
4677;DHT22;2352;48.180;11.478;2024-03-17T02:10:44;9.60;73.70
4677;DHT22;2352;48.180;11.478;2024-03-17T02:15:48;9.70;73.60
4677;DHT22;2352;48.180;11.478;2024-03-17T02:20:50;9.70;73.80
4677;DHT22;2352;48.180;11.478;2024-03-17T02:26:01;9.60;73.90
4677;DHT22;2352;48.180;11.478;2024-03-17T02:31:03;9.60;74.10
4677;DHT22;2352;48.180;11.478;2024-03-17T02:36:06;9.70;74.30
4677;DHT22;2352;48.180;11.478;2024-03-17T02:41:11;9.70;74.20
4677;DHT22;2352;48.180;11.478;2024-03-17T02:46:13;9.50;74.60
4677;DHT22;2352;48.180;11.478;2024-03-17T02:51:17;9.70;74.50
4677;DHT22;2352;48.180;11.478;2024-03-17T02:56:21;9.70;74.50
4677;DHT22;2352;48.180;11.478;2024-03-17T03:01:23;9.70;74.50
4677;DHT22;2352;48.180;11.478;2024-03-17T03:06:25;9.70;74.70
4677;DHT22;2352;48.180;11.478;2024-03-17T03:11:29;9.70;74.70
4677;DHT22;2352;48.180;11.478;2024-03-17T03:16:31;9.70;74.30
4677;DHT22;2352;48.180;11.478;2024-03-17T03:21:34;9.70;74.30
4677;DHT22;2352;48.180;11.478;2024-03-17T03:26:38;9.70;74.50
4677;DHT22;2352;48.180;11.478;2024-03-17T03:31:40;9.70;74.50
4677;DHT22;2352;48.180;11.478;2024-03-17T03:36:42;9.70;74.70
4677;DHT22;2352;48.180;11.478;2024-03-17T03:41:45;9.70;74.90
4677;DHT22;2352;48.180;11.478;2024-03-17T03:46:47;9.60;74.60
4677;DHT22;2352;48.180;11.478;2024-03-17T03:51:49;9.70;74.40
4677;DHT22;2352;48.180;11.478;2024-03-17T03:56:53;9.70;74.00
4677;DHT22;2352;48.180;11.478;2024-03-17T04:01:55;9.60;74.60
4677;DHT22;2352;48.180;11.478;2024-03-17T04:06:59;9.60;74.60
4677;DHT22;2352;48.180;11.478;2024-03-17T04:12:02;9.60;74.60
4677;DHT22;2352;48.180;11.478;2024-03-17T04:17:05;9.60;74.60
4677;DHT22;2352;48.180;11.478;2024-03-17T04:22:07;9.60;74.60
4677;DHT22;2352;48.180;11.478;2024-03-17T04:27:11;9.60;74.70
4677;DHT22;2352;48.180;11.478;2024-03-17T04:32:13;9.60;74.70
4677;DHT22;2352;48.180;11.478;2024-03-17T04:37:16;9.60;74.90
4677;DHT22;2352;48.180;11.478;2024-03-17T04:42:19;9.60;74.80
4677;DHT22;2352;48.180;11.478;2024-03-17T04:47:21;9.60;74.90
4677;DHT22;2352;48.180;11.478;2024-03-17T04:52:23;9.40;75.10
4677;DHT22;2352;48.180;11.478;2024-03-17T04:57:27;9.60;74.90
4677;DHT22;2352;48.180;11.478;2024-03-17T05:02:29;9.60;75.00
4677;DHT22;2352;48.180;11.478;2024-03-17T05:07:33;9.50;74.90
4677;DHT22;2352;48.180;11.478;2024-03-17T05:12:36;9.50;74.50
4677;DHT22;2352;48.180;11.478;2024-03-17T05:17:38;9.50;74.40
4677;DHT22;2352;48.180;11.478;2024-03-17T05:22:40;9.50;74.20
4677;DHT22;2352;48.180;11.478;2024-03-17T05:27:44;9.40;74.00
4677;DHT22;2352;48.180;11.478;2024-03-17T05:32:46;9.50;73.90
4677;DHT22;2352;48.180;11.478;2024-03-17T05:37:49;9.30;73.50
4677;DHT22;2352;48.180;11.478;2024-03-17T05:42:52;9.40;73.70
4677;DHT22;2352;48.180;11.478;2024-03-17T05:47:54;9.40;73.70
4677;DHT22;2352;48.180;11.478;2024-03-17T05:52:57;9.30;74.00
4677;DHT22;2352;48.180;11.478;2024-03-17T05:58:00;9.40;73.90
4677;DHT22;2352;48.180;11.478;2024-03-17T06:03:03;9.40;74.00
4677;DHT22;2352;48.180;11.478;2024-03-17T06:08:05;9.40;74.40
4677;DHT22;2352;48.180;11.478;2024-03-17T06:13:10;9.40;74.10
4677;DHT22;2352;48.180;11.478;2024-03-17T06:18:14;9.40;74.30
4677;DHT22;2352;48.180;11.478;2024-03-17T06:23:17;9.50;74.40
4677;DHT22;2352;48.180;11.478;2024-03-17T06:28:21;9.50;74.40
4677;DHT22;2352;48.180;11.478;2024-03-17T06:33:23;9.60;74.20
4677;DHT22;2352;48.180;11.478;2024-03-17T06:38:25;9.60;73.90
4677;DHT22;2352;48.180;11.478;2024-03-17T06:43:28;9.70;74.20
4677;DHT22;2352;48.180;11.478;2024-03-17T06:48:30;9.80;73.50
4677;DHT22;2352;48.180;11.478;2024-03-17T06:53:33;9.90;73.50
4677;DHT22;2352;48.180;11.478;2024-03-17T06:58:36;9.90;73.90
4677;DHT22;2352;48.180;11.478;2024-03-17T07:03:38;10.00;73.90
4677;DHT22;2352;48.180;11.478;2024-03-17T07:08:40;10.20;74.00
4677;DHT22;2352;48.180;11.478;2024-03-17T07:13:44;10.30;73.50
4677;DHT22;2352;48.180;11.478;2024-03-17T07:18:46;10.40;73.60
4677;DHT22;2352;48.180;11.478;2024-03-17T07:23:50;10.50;72.50
4677;DHT22;2352;48.180;11.478;2024-03-17T07:28:53;10.50;73.10
4677;DHT22;2352;48.180;11.478;2024-03-17T07:33:56;10.60;73.20
4677;DHT22;2352;48.180;11.478;2024-03-17T07:38:58;10.70;71.80
4677;DHT22;2352;48.180;11.478;2024-03-17T07:44:01;10.80;71.20
4677;DHT22;2352;48.180;11.478;2024-03-17T07:49:03;10.90;70.40
4677;DHT22;2352;48.180;11.478;2024-03-17T07:54:05;11.10;70.80
4677;DHT22;2352;48.180;11.478;2024-03-17T07:59:09;11.20;70.00
4677;DHT22;2352;48.180;11.478;2024-03-17T08:04:13;11.30;69.80
4677;DHT22;2352;48.180;11.478;2024-03-17T08:09:15;11.40;70.00
4677;DHT22;2352;48.180;11.478;2024-03-17T08:14:20;11.50;69.30
4677;DHT22;2352;48.180;11.478;2024-03-17T08:19:22;11.60;69.00
4677;DHT22;2352;48.180;11.478;2024-03-17T08:24:24;11.80;69.20
4677;DHT22;2352;48.180;11.478;2024-03-17T08:29:27;11.90;67.90
4677;DHT22;2352;48.180;11.478;2024-03-17T08:34:29;12.10;68.20
4677;DHT22;2352;48.180;11.478;2024-03-17T08:39:31;12.20;67.90
4677;DHT22;2352;48.180;11.478;2024-03-17T08:44:35;12.40;67.10
4677;DHT22;2352;48.180;11.478;2024-03-17T08:49:37;12.30;66.60
4677;DHT22;2352;48.180;11.478;2024-03-17T08:54:39;12.40;67.70
4677;DHT22;2352;48.180;11.478;2024-03-17T08:59:42;12.70;67.40
4677;DHT22;2352;48.180;11.478;2024-03-17T09:04:44;12.90;66.10
4677;DHT22;2352;48.180;11.478;2024-03-17T09:09:46;12.90;66.30
4677;DHT22;2352;48.180;11.478;2024-03-17T09:14:50;13.30;66.20
4677;DHT22;2352;48.180;11.478;2024-03-17T09:19:52;13.50;65.30
4677;DHT22;2352;48.180;11.478;2024-03-17T09:24:54;13.60;62.90
4677;DHT22;2352;48.180;11.478;2024-03-17T09:29:58;14.00;64.60
4677;DHT22;2352;48.180;11.478;2024-03-17T09:35:00;13.90;63.30
4677;DHT22;2352;48.180;11.478;2024-03-17T09:40:02;14.00;63.80
4677;DHT22;2352;48.180;11.478;2024-03-17T09:45:09;14.40;62.90
4677;DHT22;2352;48.180;11.478;2024-03-17T09:50:13;14.60;61.90
4677;DHT22;2352;48.180;11.478;2024-03-17T09:55:16;14.70;61.20
4677;DHT22;2352;48.180;11.478;2024-03-17T10:00:20;14.70;61.90
4677;DHT22;2352;48.180;11.478;2024-03-17T10:05:23;15.40;60.80
4677;DHT22;2352;48.180;11.478;2024-03-17T10:10:26;15.70;60.40
4677;DHT22;2352;48.180;11.478;2024-03-17T10:15:29;16.00;58.80
4677;DHT22;2352;48.180;11.478;2024-03-17T10:20:31;16.10;59.10
4677;DHT22;2352;48.180;11.478;2024-03-17T10:25:34;16.50;58.30
4677;DHT22;2352;48.180;11.478;2024-03-17T10:30:39;16.80;56.40
4677;DHT22;2352;48.180;11.478;2024-03-17T10:35:41;16.40;56.00
4677;DHT22;2352;48.180;11.478;2024-03-17T10:40:43;16.30;54.30
4677;DHT22;2352;48.180;11.478;2024-03-17T10:45:47;16.10;54.30
4677;DHT22;2352;48.180;11.478;2024-03-17T10:50:50;16.40;53.40
4677;DHT22;2352;48.180;11.478;2024-03-17T10:56:03;16.50;53.80
4677;DHT22;2352;48.180;11.478;2024-03-17T11:01:11;16.50;53.00
4677;DHT22;2352;48.180;11.478;2024-03-17T11:06:13;17.00;54.00
4677;DHT22;2352;48.180;11.478;2024-03-17T11:11:35;17.60;51.80
4677;DHT22;2352;48.180;11.478;2024-03-17T11:16:38;17.80;50.60
4677;DHT22;2352;48.180;11.478;2024-03-17T11:21:40;18.00;50.50
4677;DHT22;2352;48.180;11.478;2024-03-17T11:26:42;18.20;51.20
4677;DHT22;2352;48.180;11.478;2024-03-17T11:31:46;18.20;50.60
4677;DHT22;2352;48.180;11.478;2024-03-17T11:36:54;18.30;50.00
4677;DHT22;2352;48.180;11.478;2024-03-17T11:42:04;17.80;50.10
4677;DHT22;2352;48.180;11.478;2024-03-17T11:47:12;17.60;51.70
4677;DHT22;2352;48.180;11.478;2024-03-17T11:52:19;18.20;52.10
4677;DHT22;2352;48.180;11.478;2024-03-17T11:57:22;18.30;51.70
4677;DHT22;2352;48.180;11.478;2024-03-17T12:02:27;17.80;51.50
4677;DHT22;2352;48.180;11.478;2024-03-17T12:07:29;17.50;50.70
4677;DHT22;2352;48.180;11.478;2024-03-17T12:12:31;17.20;51.30
4677;DHT22;2352;48.180;11.478;2024-03-17T12:17:37;17.00;52.20
4677;DHT22;2352;48.180;11.478;2024-03-17T12:22:40;17.10;52.80
4677;DHT22;2352;48.180;11.478;2024-03-17T12:27:44;17.30;53.10
4677;DHT22;2352;48.180;11.478;2024-03-17T12:32:48;16.70;51.90
4677;DHT22;2352;48.180;11.478;2024-03-17T12:37:51;17.10;53.30
4677;DHT22;2352;48.180;11.478;2024-03-17T12:42:52;17.20;51.70
4677;DHT22;2352;48.180;11.478;2024-03-17T12:47:56;17.00;52.70
4677;DHT22;2352;48.180;11.478;2024-03-17T12:52:58;17.20;52.90
4677;DHT22;2352;48.180;11.478;2024-03-17T12:58:06;17.40;52.30
4677;DHT22;2352;48.180;11.478;2024-03-17T13:03:29;17.30;52.20
4677;DHT22;2352;48.180;11.478;2024-03-17T13:08:32;17.30;53.00
4677;DHT22;2352;48.180;11.478;2024-03-17T13:13:34;17.30;52.00
4677;DHT22;2352;48.180;11.478;2024-03-17T13:18:38;17.10;51.50
4677;DHT22;2352;48.180;11.478;2024-03-17T13:23:40;16.80;53.20
4677;DHT22;2352;48.180;11.478;2024-03-17T13:28:42;16.60;52.30
4677;DHT22;2352;48.180;11.478;2024-03-17T13:33:45;16.40;52.80
4677;DHT22;2352;48.180;11.478;2024-03-17T13:38:52;16.60;54.40
4677;DHT22;2352;48.180;11.478;2024-03-17T13:43:54;16.60;54.60
4677;DHT22;2352;48.180;11.478;2024-03-17T13:49:07;16.90;53.80
4677;DHT22;2352;48.180;11.478;2024-03-17T13:54:09;16.70;53.50
4677;DHT22;2352;48.180;11.478;2024-03-17T14:02:30;16.60;53.50
4677;DHT22;2352;48.180;11.478;2024-03-17T14:07:31;16.60;53.30
4677;DHT22;2352;48.180;11.478;2024-03-17T14:12:32;16.60;53.40
4677;DHT22;2352;48.180;11.478;2024-03-17T14:17:33;16.40;53.60
4677;DHT22;2352;48.180;11.478;2024-03-17T14:22:34;16.60;54.50
4677;DHT22;2352;48.180;11.478;2024-03-17T14:27:36;16.50;53.70
4677;DHT22;2352;48.180;11.478;2024-03-17T14:32:37;16.50;53.70
4677;DHT22;2352;48.180;11.478;2024-03-17T14:37:38;16.20;54.30
4677;DHT22;2352;48.180;11.478;2024-03-17T14:42:38;16.10;54.50
4677;DHT22;2352;48.180;11.478;2024-03-17T14:47:39;16.10;54.10
4677;DHT22;2352;48.180;11.478;2024-03-17T14:52:40;15.90;54.70
4677;DHT22;2352;48.180;11.478;2024-03-17T14:57:42;16.00;56.40
4677;DHT22;2352;48.180;11.478;2024-03-17T15:02:44;16.10;55.00
4677;DHT22;2352;48.180;11.478;2024-03-17T15:07:46;15.80;55.50
4677;DHT22;2352;48.180;11.478;2024-03-17T15:12:47;15.90;55.60
4677;DHT22;2352;48.180;11.478;2024-03-17T15:17:49;15.80;55.70
4677;DHT22;2352;48.180;11.478;2024-03-17T15:22:51;15.80;56.00
4677;DHT22;2352;48.180;11.478;2024-03-17T15:27:55;15.70;55.50
4677;DHT22;2352;48.180;11.478;2024-03-17T15:32:55;15.70;55.50
4677;DHT22;2352;48.180;11.478;2024-03-17T15:37:58;15.80;55.50
4677;DHT22;2352;48.180;11.478;2024-03-17T15:42:58;15.80;55.40
4677;DHT22;2352;48.180;11.478;2024-03-17T15:47:59;15.70;56.00
4677;DHT22;2352;48.180;11.478;2024-03-17T15:53:00;15.70;56.40
4677;DHT22;2352;48.180;11.478;2024-03-17T15:58:01;15.70;56.80
4677;DHT22;2352;48.180;11.478;2024-03-17T16:03:02;15.60;57.60
4677;DHT22;2352;48.180;11.478;2024-03-17T16:08:04;15.60;56.70
4677;DHT22;2352;48.180;11.478;2024-03-17T16:13:05;15.60;56.40
4677;DHT22;2352;48.180;11.478;2024-03-17T16:18:07;15.50;57.50
4677;DHT22;2352;48.180;11.478;2024-03-17T16:23:07;15.40;57.80
4677;DHT22;2352;48.180;11.478;2024-03-17T16:28:09;15.40;57.50
4677;DHT22;2352;48.180;11.478;2024-03-17T16:33:11;15.40;57.40
4677;DHT22;2352;48.180;11.478;2024-03-17T16:38:13;15.30;58.50
4677;DHT22;2352;48.180;11.478;2024-03-17T16:48:56;15.20;59.10
4677;DHT22;2352;48.180;11.478;2024-03-17T16:53:57;15.20;58.80
4677;DHT22;2352;48.180;11.478;2024-03-17T16:58:59;15.10;59.60
4677;DHT22;2352;48.180;11.478;2024-03-17T17:04:00;15.00;59.90
4677;DHT22;2352;48.180;11.478;2024-03-17T17:09:01;15.00;59.20
4677;DHT22;2352;48.180;11.478;2024-03-17T17:14:01;15.00;59.30
4677;DHT22;2352;48.180;11.478;2024-03-17T17:19:04;14.90;59.60
4677;DHT22;2352;48.180;11.478;2024-03-17T17:24:06;14.80;59.70
4677;DHT22;2352;48.180;11.478;2024-03-17T17:29:07;14.70;60.00
4677;DHT22;2352;48.180;11.478;2024-03-17T17:34:10;14.40;60.30
4677;DHT22;2352;48.180;11.478;2024-03-17T17:39:11;14.40;60.00
4677;DHT22;2352;48.180;11.478;2024-03-17T17:44:16;14.40;60.70
4677;DHT22;2352;48.180;11.478;2024-03-17T17:49:16;14.30;61.20
4677;DHT22;2352;48.180;11.478;2024-03-17T17:54:17;14.30;61.70
4677;DHT22;2352;48.180;11.478;2024-03-17T17:59:19;14.30;61.70
4677;DHT22;2352;48.180;11.478;2024-03-17T18:04:19;14.30;61.80
4677;DHT22;2352;48.180;11.478;2024-03-17T18:09:21;14.20;61.90
4677;DHT22;2352;48.180;11.478;2024-03-17T18:14:25;14.20;62.20
4677;DHT22;2352;48.180;11.478;2024-03-17T18:19:26;14.20;62.60
4677;DHT22;2352;48.180;11.478;2024-03-17T18:24:27;14.10;62.70
4677;DHT22;2352;48.180;11.478;2024-03-17T18:29:28;14.00;62.70
4677;DHT22;2352;48.180;11.478;2024-03-17T18:34:29;13.90;63.10
4677;DHT22;2352;48.180;11.478;2024-03-17T18:39:30;13.90;63.20
4677;DHT22;2352;48.180;11.478;2024-03-17T18:44:31;13.80;63.40
4677;DHT22;2352;48.180;11.478;2024-03-17T18:49:32;13.80;63.20
4677;DHT22;2352;48.180;11.478;2024-03-17T18:54:33;13.80;63.20
4677;DHT22;2352;48.180;11.478;2024-03-17T18:59:34;13.60;63.60
4677;DHT22;2352;48.180;11.478;2024-03-17T19:04:35;13.50;63.70
4677;DHT22;2352;48.180;11.478;2024-03-17T19:09:35;13.50;64.00
4677;DHT22;2352;48.180;11.478;2024-03-17T19:14:36;13.50;63.90
4677;DHT22;2352;48.180;11.478;2024-03-17T19:19:37;13.40;64.50
4677;DHT22;2352;48.180;11.478;2024-03-17T19:24:38;13.40;64.50
4677;DHT22;2352;48.180;11.478;2024-03-17T19:29:39;13.40;64.30
4677;DHT22;2352;48.180;11.478;2024-03-17T19:34:40;13.40;64.50
4677;DHT22;2352;48.180;11.478;2024-03-17T19:39:41;13.30;64.90
4677;DHT22;2352;48.180;11.478;2024-03-17T19:44:42;13.30;64.70
4677;DHT22;2352;48.180;11.478;2024-03-17T19:49:44;13.30;64.80
4677;DHT22;2352;48.180;11.478;2024-03-17T19:54:46;13.20;65.10
4677;DHT22;2352;48.180;11.478;2024-03-17T19:59:46;13.30;65.10
4677;DHT22;2352;48.180;11.478;2024-03-17T20:04:47;13.20;65.30
4677;DHT22;2352;48.180;11.478;2024-03-17T20:09:48;13.10;65.20
4677;DHT22;2352;48.180;11.478;2024-03-17T20:14:49;13.20;65.00
4677;DHT22;2352;48.180;11.478;2024-03-17T20:19:50;13.10;64.80
4677;DHT22;2352;48.180;11.478;2024-03-17T20:24:51;13.10;64.80
4677;DHT22;2352;48.180;11.478;2024-03-17T20:29:52;13.00;65.20
4677;DHT22;2352;48.180;11.478;2024-03-17T20:34:53;13.00;65.30
4677;DHT22;2352;48.180;11.478;2024-03-17T20:39:56;13.00;65.80
4677;DHT22;2352;48.180;11.478;2024-03-17T20:44:58;13.00;66.00
4677;DHT22;2352;48.180;11.478;2024-03-17T20:49:59;13.00;65.90
4677;DHT22;2352;48.180;11.478;2024-03-17T20:55:00;12.90;66.20
4677;DHT22;2352;48.180;11.478;2024-03-17T21:00:02;12.90;66.30
4677;DHT22;2352;48.180;11.478;2024-03-17T21:05:07;12.70;66.50
4677;DHT22;2352;48.180;11.478;2024-03-17T21:10:09;12.70;66.40
4677;DHT22;2352;48.180;11.478;2024-03-17T21:15:13;12.70;66.50
4677;DHT22;2352;48.180;11.478;2024-03-17T21:20:14;12.70;66.80
4677;DHT22;2352;48.180;11.478;2024-03-17T21:25:18;12.80;66.40
4677;DHT22;2352;48.180;11.478;2024-03-17T21:30:19;12.80;66.40
4677;DHT22;2352;48.180;11.478;2024-03-17T21:35:20;12.70;66.80
4677;DHT22;2352;48.180;11.478;2024-03-17T21:40:21;12.60;67.10
4677;DHT22;2352;48.180;11.478;2024-03-17T21:45:24;12.70;67.00
4677;DHT22;2352;48.180;11.478;2024-03-17T21:50:24;12.60;67.30
4677;DHT22;2352;48.180;11.478;2024-03-17T21:55:25;12.60;67.30
4677;DHT22;2352;48.180;11.478;2024-03-17T22:00:27;12.50;67.20
4677;DHT22;2352;48.180;11.478;2024-03-17T22:05:29;12.50;67.30
4677;DHT22;2352;48.180;11.478;2024-03-17T22:10:30;12.50;67.20
4677;DHT22;2352;48.180;11.478;2024-03-17T22:15:30;12.50;67.30
4677;DHT22;2352;48.180;11.478;2024-03-17T22:20:31;12.50;67.40
4677;DHT22;2352;48.180;11.478;2024-03-17T22:25:32;12.50;67.50
4677;DHT22;2352;48.180;11.478;2024-03-17T22:30:33;12.50;67.60
4677;DHT22;2352;48.180;11.478;2024-03-17T22:35:34;12.50;67.80
4677;DHT22;2352;48.180;11.478;2024-03-17T22:40:34;12.40;68.20
4677;DHT22;2352;48.180;11.478;2024-03-17T22:45:35;12.20;68.70
4677;DHT22;2352;48.180;11.478;2024-03-17T22:50:36;12.30;68.40
4677;DHT22;2352;48.180;11.478;2024-03-17T22:55:37;12.30;68.20
4677;DHT22;2352;48.180;11.478;2024-03-17T23:00:41;12.30;68.20
4677;DHT22;2352;48.180;11.478;2024-03-17T23:05:52;12.30;68.10
4677;DHT22;2352;48.180;11.478;2024-03-17T23:10:58;12.20;68.20
4677;DHT22;2352;48.180;11.478;2024-03-17T23:16:00;12.20;68.30
4677;DHT22;2352;48.180;11.478;2024-03-17T23:21:01;12.10;68.20
4677;DHT22;2352;48.180;11.478;2024-03-17T23:26:02;12.10;68.30
4677;DHT22;2352;48.180;11.478;2024-03-17T23:31:03;12.20;68.30
4677;DHT22;2352;48.180;11.478;2024-03-17T23:36:04;12.10;68.40
4677;DHT22;2352;48.180;11.478;2024-03-17T23:41:05;12.10;68.40
4677;DHT22;2352;48.180;11.478;2024-03-17T23:46:06;12.10;68.00
4677;DHT22;2352;48.180;11.478;2024-03-17T23:51:09;12.20;68.10
4677;DHT22;2352;48.180;11.478;2024-03-17T23:56:10;12.10;68.10
